Terminal Aerodrome Forecast
Issued by NWS

Home | Current Version | Previous Version | Graphics & Text | Print | Product List | Glossary On
Versions: 1 2 3 4 5 6 7 8 9 10 11 12 13 14 15 16 17 18 19 20 21 22 23 24 25 26 27
000
FTUS43 KGRB 222300
TAFRHI
TAF
KRHI 222330Z 2300/2324 17006KT P6SM SCT050 BKN250
     FM230700 17005KT P6SM SCT025 BKN050
     FM231100 17005KT P6SM OVC020
      TEMPO 2311/2315 5SM -SHRA
     FM231500 17008KT 4SM -SHRA BR OVC015
     FM232100 21005KT P6SM VCSH BKN020=

USA.gov is the U.S. government's official web portal to all federal, state and local government web resources and services.